createdAt,value
2017-07-19T00:02:13.576Z,95701
2017-07-19T00:04:48.408Z,95695
2017-07-19T00:07:23.167Z,95503
2017-07-19T00:09:57.953Z,95686
2017-07-19T00:12:32.735Z,95684
2017-07-19T00:15:07.651Z,95691
2017-07-19T00:17:42.424Z,95694
2017-07-19T00:20:18.001Z,95690
2017-07-19T00:22:53.011Z,95675
2017-07-19T00:25:27.944Z,95677
2017-07-19T00:28:02.887Z,95667
2017-07-19T00:30:37.650Z,95666
2017-07-19T00:33:12.462Z,95676
2017-07-19T00:35:47.242Z,95674
2017-07-19T00:38:22.074Z,95675
2017-07-19T00:40:56.959Z,95676
2017-07-19T00:43:31.912Z,95670
2017-07-19T00:46:06.892Z,95655
2017-07-19T00:48:41.847Z,95670
2017-07-19T00:51:16.627Z,95674
2017-07-19T00:53:52.435Z,95670
2017-07-19T00:56:27.410Z,95659
2017-07-19T00:59:02.342Z,95640
2017-07-19T01:01:37.297Z,95662
2017-07-19T01:04:12.280Z,95655
2017-07-19T01:06:47.062Z,95649
2017-07-19T01:09:21.856Z,95662
2017-07-19T01:11:56.680Z,95664
2017-07-19T01:14:32.436Z,95663
2017-07-19T01:17:07.340Z,95669
2017-07-19T01:19:42.211Z,95661
2017-07-19T01:22:17.176Z,95666
2017-07-19T01:24:52.761Z,95667
2017-07-19T01:27:27.683Z,95663
2017-07-19T01:30:02.630Z,95657
2017-07-19T01:32:38.355Z,95663
2017-07-19T01:35:14.091Z,95665
2017-07-19T01:37:49.005Z,95669
2017-07-19T01:40:23.862Z,95672
2017-07-19T01:42:58.739Z,95676
2017-07-19T01:45:33.779Z,95678
2017-07-19T01:48:08.676Z,95676
2017-07-19T01:50:43.663Z,95675
2017-07-19T01:53:18.596Z,95683
2017-07-19T01:55:53.536Z,95681
2017-07-19T01:58:29.220Z,95676
2017-07-19T02:01:04.050Z,95685
2017-07-19T02:03:38.835Z,95683
2017-07-19T02:06:13.819Z,95681
2017-07-19T02:08:48.723Z,95685
2017-07-19T02:11:23.548Z,95690
2017-07-19T02:13:58.335Z,95692
2017-07-19T02:16:33.250Z,95687
2017-07-19T02:19:08.160Z,95684
2017-07-19T02:21:43.923Z,95681
2017-07-19T02:24:19.518Z,95686
2017-07-19T02:26:54.499Z,95681
2017-07-19T02:29:29.371Z,95682
2017-07-19T02:32:08.367Z,95682
2017-07-19T02:34:43.293Z,95686
2017-07-19T02:37:18.180Z,95679
2017-07-19T02:39:53.177Z,95704
2017-07-19T02:42:28.112Z,95691
2017-07-19T02:45:03.037Z,95681
2017-07-19T02:47:37.966Z,95671
2017-07-19T02:50:12.979Z,95671
2017-07-19T02:52:47.926Z,95675
2017-07-19T02:55:22.889Z,95678
2017-07-19T02:57:57.852Z,95683
2017-07-19T03:00:32.784Z,95694
2017-07-19T03:03:08.543Z,95681
2017-07-19T03:05:43.447Z,95687
2017-07-19T03:08:18.288Z,95679
2017-07-19T03:10:53.213Z,95681
2017-07-19T03:13:28.082Z,95689
2017-07-19T03:16:02.947Z,95701
2017-07-19T03:18:37.763Z,95691
2017-07-19T03:21:17.173Z,95685
2017-07-19T03:23:52.206Z,95690
2017-07-19T03:26:27.112Z,95688
2017-07-19T03:29:02.042Z,95695
2017-07-19T03:31:36.808Z,95691
2017-07-19T03:34:11.821Z,95692
2017-07-19T03:36:48.335Z,95697
2017-07-19T03:39:23.236Z,95698
2017-07-19T03:41:58.195Z,95701
2017-07-19T03:44:33.204Z,95698
2017-07-19T03:47:07.991Z,95708
2017-07-19T03:49:42.878Z,95705
2017-07-19T03:52:17.807Z,95703
2017-07-19T03:54:52.612Z,95710
2017-07-19T03:57:27.519Z,95704
2017-07-19T04:00:02.367Z,95707
2017-07-19T04:02:37.392Z,95696
2017-07-19T04:05:29.467Z,95695
2017-07-19T04:08:04.256Z,95698
2017-07-19T04:10:39.219Z,95691
2017-07-19T04:13:14.128Z,95702
2017-07-19T04:15:49.050Z,95714
2017-07-19T04:18:24.014Z,95706
2017-07-19T04:20:58.782Z,95707
2017-07-19T04:23:41.603Z,95717
2017-07-19T04:26:17.299Z,95711
2017-07-19T04:28:52.069Z,95709
2017-07-19T04:31:26.907Z,95708
2017-07-19T04:34:01.874Z,95704
2017-07-19T04:36:36.739Z,95716
2017-07-19T04:39:11.621Z,95709
2017-07-19T04:41:46.523Z,95699
2017-07-19T04:44:21.420Z,95694
2017-07-19T04:46:56.311Z,95703
2017-07-19T04:49:31.227Z,95701
2017-07-19T04:52:06.066Z,95699
2017-07-19T04:54:40.990Z,95707
2017-07-19T04:57:15.955Z,95705
2017-07-19T04:59:51.588Z,95705
2017-07-19T05:02:26.719Z,95708
2017-07-19T05:05:05.789Z,95705
2017-07-19T05:07:40.595Z,95704
2017-07-19T05:10:15.499Z,95701
2017-07-19T05:12:50.338Z,95702
2017-07-19T05:15:25.137Z,95698
2017-07-19T05:17:59.924Z,95706
2017-07-19T05:20:35.024Z,95709
2017-07-19T05:23:09.892Z,95737
2017-07-19T05:25:44.833Z,95703
2017-07-19T05:28:19.661Z,95701
2017-07-19T05:30:54.423Z,95367
2017-07-19T05:33:30.046Z,95704
2017-07-19T05:36:05.040Z,95702
2017-07-19T05:38:39.867Z,95706
2017-07-19T05:41:14.672Z,95708
2017-07-19T05:43:49.472Z,95700
2017-07-19T05:46:24.383Z,95705
2017-07-19T05:48:59.336Z,95714
2017-07-19T05:51:34.097Z,95714
2017-07-19T05:54:08.896Z,95711
2017-07-19T05:56:43.701Z,95718
2017-07-19T05:59:18.611Z,95714
2017-07-19T06:01:53.496Z,95705
2017-07-19T06:04:28.411Z,95710
2017-07-19T06:07:03.228Z,95729
2017-07-19T06:09:38.026Z,95717
2017-07-19T06:12:13.784Z,95716
2017-07-19T06:14:49.542Z,95718
2017-07-19T06:17:24.500Z,95711
2017-07-19T06:19:59.491Z,95708
2017-07-19T06:22:34.420Z,95703
2017-07-19T06:25:09.399Z,95706
2017-07-19T06:27:44.367Z,95699
2017-07-19T06:30:19.293Z,95699
2017-07-19T06:32:54.971Z,95646
2017-07-19T06:35:29.900Z,95706
2017-07-19T06:38:04.708Z,95698
2017-07-19T06:40:40.400Z,95709
2017-07-19T06:43:15.184Z,95707
2017-07-19T06:45:50.202Z,95700
2017-07-19T06:48:24.980Z,95701
2017-07-19T06:50:59.798Z,95699
2017-07-19T06:53:34.734Z,95714
2017-07-19T06:56:09.704Z,95708
2017-07-19T06:58:44.699Z,95696
2017-07-19T07:01:19.682Z,95698
2017-07-19T07:03:54.606Z,95701
2017-07-19T07:06:29.441Z,95692
2017-07-19T07:09:04.380Z,95701
2017-07-19T07:11:39.189Z,95709
2017-07-19T07:14:14.186Z,95704
2017-07-19T07:16:49.023Z,95708
2017-07-19T07:19:23.875Z,95701
2017-07-19T07:21:58.694Z,95697
2017-07-19T07:24:33.620Z,95697
2017-07-19T07:27:08.416Z,95707
2017-07-19T07:29:43.431Z,95706
2017-07-19T07:32:19.065Z,95700
2017-07-19T07:34:53.852Z,95690
2017-07-19T07:37:29.418Z,95702
2017-07-19T07:40:04.332Z,95697
2017-07-19T07:42:39.371Z,95694
2017-07-19T07:45:14.399Z,95698
2017-07-19T07:47:49.235Z,95699
2017-07-19T07:50:24.164Z,95701
2017-07-19T07:52:59.011Z,95696
2017-07-19T07:55:33.855Z,95702
2017-07-19T07:58:08.670Z,95700
2017-07-19T08:00:43.455Z,95692
2017-07-19T08:03:18.316Z,95697
2017-07-19T08:05:53.114Z,95696
2017-07-19T08:08:28.002Z,95694
2017-07-19T08:11:02.759Z,95693
2017-07-19T08:13:37.691Z,95689
2017-07-19T08:16:12.516Z,95689
2017-07-19T08:18:47.299Z,95689
2017-07-19T08:21:22.135Z,95681
2017-07-19T08:23:57.090Z,95684
2017-07-19T08:26:31.892Z,95682
2017-07-19T08:29:06.890Z,95677
2017-07-19T08:31:41.851Z,95675
2017-07-19T08:34:16.819Z,95679
2017-07-19T08:36:51.797Z,95673
2017-07-19T08:39:26.578Z,95677
2017-07-19T08:42:01.411Z,95670
2017-07-19T08:44:36.327Z,95674
2017-07-19T08:47:11.142Z,95668
2017-07-19T08:49:45.999Z,95666
2017-07-19T08:52:21.701Z,95666
2017-07-19T08:54:56.656Z,95672
2017-07-19T08:57:31.617Z,95672
2017-07-19T09:00:06.474Z,95667
2017-07-19T09:02:41.379Z,95666
2017-07-19T09:05:16.342Z,95672
2017-07-19T09:07:51.301Z,95670
2017-07-19T09:10:26.251Z,95674
2017-07-19T09:13:01.232Z,95666
2017-07-19T09:15:36.152Z,95662
2017-07-19T09:18:10.966Z,95670
2017-07-19T09:20:45.819Z,95670
2017-07-19T09:23:20.735Z,95663
2017-07-19T09:25:55.644Z,95671
2017-07-19T09:28:30.590Z,95664
2017-07-19T09:31:05.400Z,95666
2017-07-19T09:33:40.194Z,95661
2017-07-19T09:36:15.080Z,95656
2017-07-19T09:38:49.996Z,95654
2017-07-19T09:41:24.965Z,95668
2017-07-19T09:43:59.976Z,95650
2017-07-19T09:46:34.947Z,95651
2017-07-19T09:49:09.887Z,95644
2017-07-19T09:51:44.695Z,95646
2017-07-19T09:54:19.571Z,95647
2017-07-19T09:56:54.381Z,95636
2017-07-19T09:59:29.212Z,95633
2017-07-19T10:02:04.757Z,95636
2017-07-19T10:04:39.732Z,95633
2017-07-19T10:07:14.692Z,95636
2017-07-19T10:09:49.487Z,95633
2017-07-19T10:12:24.488Z,95641
2017-07-19T10:14:59.472Z,95634
2017-07-19T10:17:34.305Z,95640
2017-07-19T10:20:09.183Z,95629
2017-07-19T10:22:44.149Z,95634
2017-07-19T10:25:19.054Z,95635
2017-07-19T10:27:54.691Z,95633
2017-07-19T10:30:29.664Z,95626
2017-07-19T10:33:04.568Z,95626
2017-07-19T10:35:39.534Z,95632
2017-07-19T10:38:14.532Z,95625
2017-07-19T10:40:49.431Z,95623
2017-07-19T10:43:24.273Z,95621
2017-07-19T10:45:59.566Z,95619
2017-07-19T10:48:34.572Z,95609
2017-07-19T10:51:09.655Z,95608
2017-07-19T10:53:44.612Z,95616
2017-07-19T10:56:19.539Z,95619
2017-07-19T10:58:55.531Z,95617
2017-07-19T11:01:30.522Z,95611
2017-07-19T11:04:05.525Z,95605
2017-07-19T11:06:41.289Z,95612
2017-07-19T11:09:16.075Z,95606
2017-07-19T11:11:51.065Z,95604
2017-07-19T11:14:26.050Z,95593
2017-07-19T11:17:01.048Z,95594
2017-07-19T11:19:35.975Z,95593
2017-07-19T11:22:10.908Z,95593
2017-07-19T11:24:45.788Z,95583
2017-07-19T11:27:20.859Z,95582
2017-07-19T11:29:55.807Z,95580
2017-07-19T11:32:30.808Z,95582
2017-07-19T11:35:06.881Z,95588
2017-07-19T11:37:41.719Z,95585
2017-07-19T11:40:16.648Z,95583
2017-07-19T11:42:51.576Z,95572
2017-07-19T11:45:26.550Z,95581
2017-07-19T11:48:01.481Z,95586
2017-07-19T11:50:36.312Z,95586
2017-07-19T11:53:11.256Z,95590
2017-07-19T11:55:46.968Z,95584
2017-07-19T11:58:22.539Z,95592
2017-07-19T12:00:57.463Z,95584
2017-07-19T12:03:32.432Z,95575
2017-07-19T12:06:07.350Z,95578
2017-07-19T12:08:43.189Z,95576
2017-07-19T12:11:19.059Z,95573
2017-07-19T12:13:53.990Z,95572
2017-07-19T12:16:29.035Z,95561
2017-07-19T12:19:03.857Z,95559
2017-07-19T12:21:38.758Z,95566
2017-07-19T12:24:13.748Z,95566
2017-07-19T12:26:48.699Z,95560
2017-07-19T12:29:23.704Z,95557
2017-07-19T12:31:58.612Z,95547
2017-07-19T12:34:33.647Z,95545
2017-07-19T12:37:08.339Z,95540
2017-07-19T12:39:43.936Z,95546
2017-07-19T12:42:19.879Z,95533
2017-07-19T12:44:55.631Z,95531
2017-07-19T12:47:30.644Z,95529
2017-07-19T12:50:05.588Z,95529
2017-07-19T12:52:41.324Z,95526
2017-07-19T12:55:16.307Z,95525
2017-07-19T12:57:51.288Z,95526
2017-07-19T13:00:26.127Z,95517
2017-07-19T13:03:01.094Z,95522
2017-07-19T13:05:36.054Z,95514
2017-07-19T13:08:11.651Z,95515
2017-07-19T13:10:49.791Z,95512
2017-07-19T13:13:24.594Z,95514
2017-07-19T13:15:59.482Z,95510
2017-07-19T13:18:34.368Z,95502
2017-07-19T13:21:09.315Z,95518
2017-07-19T13:23:44.195Z,95505
2017-07-19T13:26:19.204Z,95503
2017-07-19T13:28:54.792Z,95491
2017-07-19T13:31:29.622Z,95473
2017-07-19T13:34:04.552Z,95489
2017-07-19T13:36:39.511Z,95493
2017-07-19T13:39:14.344Z,95482
2017-07-19T13:41:49.252Z,95490
2017-07-19T13:44:24.257Z,95489
2017-07-19T13:47:01.172Z,95492
2017-07-19T13:49:36.159Z,95495
2017-07-19T13:52:11.134Z,95499
2017-07-19T13:54:46.358Z,95496
2017-07-19T13:57:22.513Z,95484
2017-07-19T13:59:57.809Z,95481
2017-07-19T14:02:32.663Z,95478
2017-07-19T14:05:07.609Z,95475
2017-07-19T14:07:45.257Z,95474
2017-07-19T14:10:26.592Z,95472
2017-07-19T14:13:01.543Z,95477
2017-07-19T14:15:37.271Z,95473
2017-07-19T14:18:12.177Z,95469
2017-07-19T14:20:47.071Z,95469
2017-07-19T14:23:23.016Z,95464
2017-07-19T14:25:59.907Z,95463
2017-07-19T14:28:35.275Z,95459
2017-07-19T14:31:14.145Z,95463
2017-07-19T14:33:49.055Z,95451
2017-07-19T14:36:24.013Z,95447
2017-07-19T14:38:59.039Z,95445
2017-07-19T14:41:33.945Z,95445
2017-07-19T14:44:09.611Z,95453
2017-07-19T14:46:44.441Z,95436
2017-07-19T14:49:19.483Z,95438
2017-07-19T14:51:54.315Z,95445
2017-07-19T14:54:29.875Z,95437
2017-07-19T14:57:04.874Z,95434
2017-07-19T14:59:39.707Z,95430
2017-07-19T15:02:14.659Z,95426
2017-07-19T15:04:49.631Z,95420
2017-07-19T15:07:24.403Z,95420
2017-07-19T15:09:59.374Z,95412
2017-07-19T15:12:34.173Z,95415
2017-07-19T15:15:09.127Z,95411
2017-07-19T15:17:43.968Z,95408
2017-07-19T15:20:18.868Z,95407
2017-07-19T15:22:53.828Z,95407
2017-07-19T15:25:28.751Z,95395
2017-07-19T15:28:03.757Z,95399
2017-07-19T15:30:38.748Z,95403
2017-07-19T15:33:13.722Z,95391
2017-07-19T15:35:51.983Z,95397
2017-07-19T15:38:26.980Z,95382
2017-07-19T15:41:02.889Z,95388
2017-07-19T15:43:37.794Z,95382
2017-07-19T15:46:12.811Z,95385
2017-07-19T15:48:47.627Z,95387
2017-07-19T15:51:22.654Z,95372
2017-07-19T15:53:59.446Z,95371
2017-07-19T15:56:36.443Z,95377
2017-07-19T15:59:11.352Z,95371
2017-07-19T16:01:46.900Z,95371
2017-07-19T16:04:22.028Z,95369
2017-07-19T16:06:56.890Z,95367
2017-07-19T16:09:31.809Z,95395
2017-07-19T16:12:06.602Z,95369
2017-07-19T16:14:43.304Z,95372
2017-07-19T16:17:18.145Z,95360
2017-07-19T16:19:53.055Z,95359
2017-07-19T16:22:28.152Z,95354
2017-07-19T16:25:03.124Z,95352
2017-07-19T16:27:37.926Z,95352
2017-07-19T16:30:13.017Z,95342
2017-07-19T16:32:48.079Z,95338
2017-07-19T16:35:23.059Z,95341
2017-07-19T16:37:57.997Z,95347
2017-07-19T16:40:42.815Z,95345
2017-07-19T16:43:17.776Z,95346
2017-07-19T16:45:52.733Z,95345
2017-07-19T16:48:27.699Z,95346
2017-07-19T16:51:02.665Z,95342
2017-07-19T16:53:37.727Z,95343
2017-07-19T16:56:13.257Z,95346
2017-07-19T16:58:49.370Z,95344
2017-07-19T17:01:24.273Z,95346
2017-07-19T17:04:00.011Z,95343
2017-07-19T17:06:34.822Z,95344
2017-07-19T17:09:09.628Z,95348
2017-07-19T17:11:47.913Z,95358
2017-07-19T17:14:23.085Z,95369
2017-07-19T17:16:58.331Z,95357
2017-07-19T17:19:33.739Z,95366
2017-07-19T17:22:08.777Z,95369
2017-07-19T17:24:43.831Z,95374
2017-07-19T17:27:19.309Z,95373
2017-07-19T17:29:54.678Z,95374
2017-07-19T17:32:40.691Z,95371
2017-07-19T17:35:20.215Z,95368
2017-07-19T17:37:55.752Z,95365
2017-07-19T17:40:31.360Z,95358
2017-07-19T17:43:06.684Z,95362
2017-07-19T17:45:42.748Z,95360
2017-07-19T17:48:18.175Z,95365
2017-07-19T17:50:53.852Z,95376
2017-07-19T17:53:30.367Z,95361
2017-07-19T17:56:05.839Z,95354
2017-07-19T17:58:41.155Z,95355
2017-07-19T18:01:16.337Z,95355
2017-07-19T18:03:51.727Z,95354
2017-07-19T18:06:27.103Z,95359
2017-07-19T18:09:02.182Z,95361
2017-07-19T18:11:40.994Z,95357
2017-07-19T18:14:19.820Z,95353
2017-07-19T18:16:55.261Z,95296
2017-07-19T18:19:30.404Z,95347
2017-07-19T18:22:06.216Z,95351
2017-07-19T18:24:42.175Z,95352
2017-07-19T18:27:18.921Z,95343
2017-07-19T18:29:55.891Z,95345
2017-07-19T18:32:31.004Z,95337
2017-07-19T18:35:06.680Z,95334
2017-07-19T18:37:41.748Z,95333
2017-07-19T18:40:17.005Z,95328
2017-07-19T18:42:51.987Z,95331
2017-07-19T18:45:27.070Z,95338
2017-07-19T18:48:02.398Z,95345
2017-07-19T18:50:37.974Z,95339
2017-07-19T18:53:17.377Z,95355
2017-07-19T18:55:52.381Z,95359
2017-07-19T18:58:27.785Z,95359
2017-07-19T19:01:04.965Z,95366
2017-07-19T19:03:40.212Z,95403
2017-07-19T19:06:15.330Z,95381
2017-07-19T19:08:51.683Z,95384
2017-07-19T19:11:27.059Z,95383
2017-07-19T19:14:02.028Z,95382
2017-07-19T19:16:37.004Z,95388
2017-07-19T19:19:12.724Z,95391
2017-07-19T19:21:47.634Z,95391
2017-07-19T19:24:23.374Z,95385
2017-07-19T19:26:58.283Z,95384
2017-07-19T19:29:33.252Z,95372
2017-07-19T19:32:08.023Z,95366
2017-07-19T19:34:43.001Z,95376
2017-07-19T19:37:23.494Z,95378
2017-07-19T19:39:59.227Z,95382
2017-07-19T19:42:34.171Z,95388
2017-07-19T19:45:09.364Z,95388
2017-07-19T19:47:44.261Z,95393
2017-07-19T19:50:19.123Z,95398
2017-07-19T19:52:54.088Z,95402
2017-07-19T19:55:29.538Z,95413
2017-07-19T19:58:05.382Z,95418
2017-07-19T20:00:40.288Z,95452
2017-07-19T20:03:15.268Z,95443
2017-07-19T20:05:50.119Z,95467
2017-07-19T20:08:25.047Z,95482
2017-07-19T20:10:59.983Z,95476
2017-07-19T20:13:34.903Z,95482
2017-07-19T20:16:09.803Z,95468
2017-07-19T20:18:44.703Z,95475
2017-07-19T20:21:24.944Z,95494
2017-07-19T20:23:59.775Z,95527
2017-07-19T20:26:35.447Z,95531
2017-07-19T20:29:10.356Z,95544
2017-07-19T20:31:47.177Z,95540
2017-07-19T20:34:21.955Z,95570
2017-07-19T20:36:58.893Z,95608
2017-07-19T20:39:33.826Z,95595
2017-07-19T20:42:08.926Z,95609
2017-07-19T20:44:43.704Z,95583
2017-07-19T20:47:18.527Z,95578
2017-07-19T20:49:53.311Z,95581
2017-07-19T20:52:28.415Z,95591
2017-07-19T20:55:03.333Z,95606
2017-07-19T20:57:38.990Z,95637
2017-07-19T21:00:13.752Z,95634
2017-07-19T21:02:48.949Z,95635
2017-07-19T21:05:23.865Z,95641
2017-07-19T21:07:58.880Z,95635
2017-07-19T21:10:33.808Z,95626
2017-07-19T21:13:08.785Z,95626
2017-07-19T21:15:44.591Z,95619
2017-07-19T21:18:19.528Z,95615
2017-07-19T21:20:54.543Z,95613
2017-07-19T21:23:29.526Z,95618
2017-07-19T21:26:04.398Z,95639
2017-07-19T21:28:40.310Z,95652
2017-07-19T21:31:15.101Z,95640
2017-07-19T21:33:50.030Z,95659
2017-07-19T21:36:25.729Z,95643
2017-07-19T21:39:00.523Z,95654
2017-07-19T21:41:35.925Z,95683
2017-07-19T21:44:12.437Z,95645
2017-07-19T21:46:47.408Z,95654
2017-07-19T21:49:22.395Z,95650
2017-07-19T21:51:57.444Z,95653
2017-07-19T21:54:32.246Z,95657
2017-07-19T21:57:07.229Z,95663
2017-07-19T21:59:42.841Z,95643
2017-07-19T22:02:17.868Z,95634
2017-07-19T22:04:53.512Z,95641
2017-07-19T22:07:28.443Z,95638
2017-07-19T22:10:05.269Z,95645
2017-07-19T22:12:41.163Z,95644
2017-07-19T22:15:16.087Z,95640
2017-07-19T22:17:54.809Z,95639
2017-07-19T22:20:29.791Z,95632
2017-07-19T22:23:04.762Z,95630
2017-07-19T22:25:39.735Z,95629
2017-07-19T22:28:14.542Z,95625
2017-07-19T22:30:50.090Z,95628
2017-07-19T22:33:25.082Z,95621
2017-07-19T22:36:00.050Z,95629
2017-07-19T22:38:45.324Z,95611
2017-07-19T22:41:20.255Z,95604
2017-07-19T22:43:55.763Z,95605
2017-07-19T22:46:30.735Z,95605
2017-07-19T22:49:05.569Z,95598
2017-07-19T22:51:40.535Z,95597
2017-07-19T22:54:15.501Z,95595
2017-07-19T22:56:50.335Z,95590
2017-07-19T22:59:26.009Z,95579
2017-07-19T23:02:00.968Z,95588
2017-07-19T23:04:35.878Z,95587
2017-07-19T23:07:10.763Z,95575
2017-07-19T23:09:46.448Z,95573
2017-07-19T23:12:21.391Z,95572
2017-07-19T23:14:56.323Z,95572
2017-07-19T23:17:31.154Z,95578
2017-07-19T23:20:05.958Z,95576
2017-07-19T23:22:40.811Z,95579
2017-07-19T23:25:15.714Z,95594
2017-07-19T23:27:50.676Z,95595
2017-07-19T23:30:25.505Z,95589
2017-07-19T23:33:00.371Z,95621
2017-07-19T23:35:35.324Z,95578
2017-07-19T23:38:10.300Z,95587
2017-07-19T23:40:45.200Z,95583
2017-07-19T23:43:20.164Z,95569
2017-07-19T23:45:55.068Z,95559
2017-07-19T23:48:30.010Z,95542
2017-07-19T23:51:05.572Z,95561
2017-07-19T23:53:40.527Z,95555
2017-07-19T23:56:15.509Z,95545
2017-07-19T23:58:50.463Z,95544
